X  Schlie├čen METAR Luftfahrt Wetterdaten     ETAR Ramstein Air Base
Temperatur
26°C Temperatur
9°C Taupunkt
34% Feuchtigkeit



Wind
2 M/S
5 MPH
8 KM/H
4 KTS



40°
NO
Aktuelle Wetterlage

Klar Klar
Luftdruck 1013.52 (hPa) - 29.93 (inHg)
Sichtweite 6.2 (Meile) - 10 (Km)
Flughafen
Flughafen Code ETAR

Position : Ramstein Air Base
Entfernung: 25 (Km)

Metar:
ETAR 081055Z AUTO 04004KT 9999 CLR 26/09 A2993 RMK AO2 SLP136 T02590092

Zeit: 08-06-2023 12:55 CEST